Kathleen, Florida
Current Conditions -  °F | °C
As of 7:50 AM on Thursday 23 Oct 2014 (Local Time) from KLAL Reporting Station
Clear Clear  
Wind Chill: 61°   Ceiling: Unl
Heat Index: 61°   Visibility: 12mi
Dew Point: 57°   Wind: 7mph
Humidity: 88%   Direction: 30°NNE
Pressure: 29.99"   Gusts: NA
Location:  28.12°N, 82.02°W
Report Text: KLAL 231150Z 03006KT 12SM SKC 16/14 A2999
Loading
Personal Weather Stations






























Interactive Weather Map
Tropical Storm Tracking
New forecast layout! Learn more

10-Day Weather Forecast

Advertisements
Track Severe Weather on mobile